Latest Weather Observations for Noarlunga

IDS60901

Issued at 4:55 pm CST Saturday 23 August 2014 (issued every 10 minutes, with the page automatically refreshed every 10 minutes)

About weather observations | Map of Adelaide area stations | Latest observations for Adelaide area | Other Formats
Station Details ID: 023885 Name: NOARLUNGA Lat: -35.16 Lon: 138.51 Height: 55.0 m
Data from the previous 72 hours. | See also: Recent months at Noarlunga
Date/Time
CST
Tmp

°C
App
Tmp
°C
Dew
Point
°C
Rel
Hum
%
Delta-T

°C
Wind Press
QNH
hPa
Press
MSL
hPa
Rain
since
9 am
mm
Dir
 
Spd
km/h
Gust
km/h
Spd
kts
Gust
kts
23/04:30pm 14.4 10.9 8.6 68 2.9 W 17 26 9 14 - - 0.0
23/04:00pm 15.2 12.1 8.9 66 3.2 W 15 22 8 12 - - 0.0
23/03:30pm 15.0 10.9 8.5 65 3.3 W 20 28 11 15 - - 0.0
23/03:00pm 15.1 10.4 7.9 62 3.6 W 22 33 12 18 - - 0.0
23/02:30pm 15.3 10.5 8.8 65 3.3 W 24 33 13 18 - - 0.0
23/02:00pm 15.4 11.2 8.4 63 3.5 W 20 33 11 18 - - 0.0
23/01:30pm 15.8 11.9 8.5 62 3.7 W 19 32 10 17 - - 0.0
23/01:00pm 15.4 10.9 8.6 64 3.5 W 22 33 12 18 - - 0.0
23/12:30pm 16.0 12.6 10.5 70 2.9 WNW 19 32 10 17 - - 0.0
23/12:00pm 15.6 12.0 10.6 72 2.7 NW 20 30 11 16 - - 0.0
23/11:30am 14.4 11.4 10.6 78 2.0 NW 17 24 9 13 - - 0.0
23/11:00am 13.4 10.8 10.6 83 1.5 NW 15 24 8 13 - - 0.0
23/10:30am 13.1 10.8 10.6 85 1.3 NW 13 20 7 11 - - 0.0
23/10:00am 13.9 9.7 8.3 69 2.8 NW 20 30 11 16 - - 0.0
23/09:30am 14.6 8.7 5.9 56 4.2 N 26 41 14 22 - - 0.0
23/09:00am 15.9 10.2 4.9 48 5.2 N 24 37 13 20 - - 0.0
23/08:30am 15.9 8.8 3.4 43 5.7 N 30 46 16 25 - - 0.0
23/08:00am 15.6 9.2 3.1 43 5.7 N 26 39 14 21 - - 0.0
23/07:30am 15.8 8.6 2.9 42 5.9 N 30 39 16 21 - - 0.0
23/07:00am 16.0 9.4 2.1 39 6.2 N 26 41 14 22 - - 0.0
23/06:30am 16.1 9.9 2.2 39 6.2 NNE 24 39 13 21 - - 0.0
23/06:00am 16.4 10.5 1.7 37 6.5 NNE 22 35 12 19 - - 0.0
23/05:30am 16.8 10.5 1.3 35 6.9 NNE 24 35 13 19 - - 0.0
23/05:00am 16.9 10.2 1.4 35 6.9 NNE 26 43 14 23 - - 0.0
23/04:30am 16.7 9.6 1.6 36 6.7 N 28 39 15 21 - - 0.0
23/04:00am 16.9 9.4 1.4 35 6.9 N 30 46 16 25 - - 0.0
23/03:30am 17.1 9.6 1.5 35 6.9 N 30 44 16 24 - - 0.0
23/03:11am 16.9 9.9 1.8 36 6.8 NNE 28 48 15 26 - - 0.0
23/03:00am 16.6 10.0 1.9 37 6.6 NNE 26 43 14 23 - - 0.0
23/02:30am 16.4 9.7 1.7 37 6.5 NNE 26 41 14 22 - - 0.0
23/02:00am 16.3 10.4 1.6 37 6.5 N 22 33 12 18 - - 0.0
23/01:30am 16.0 10.5 1.7 38 6.3 N 20 30 11 16 - - 0.0
23/01:00am 16.4 10.4 1.3 36 6.7 NNE 22 32 12 17 - - 0.0
23/12:30am 16.8 11.3 1.7 36 6.7 NNE 20 30 11 16 - - 0.0
23/12:00am 16.9 11.5 1.4 35 6.9 NNE 19 28 10 15 - - 0.0
 
Date/Time
CST
Tmp

°C
App
Tmp
°C
Dew
Point
°C
Rel
Hum
%
Delta-T

°C
Wind Press
QNH
hPa
Press
MSL
hPa
Rain
since
9 am
mm
Dir
 
Spd
km/h
Gust
km/h
Spd
kts
Gust
kts
22/11:30pm 17.1 12.1 1.1 34 7.1 NNE 17 28 9 15 - - 0.0
22/11:00pm 16.0 12.4 0.6 35 6.7 NE 9 15 5 8 - - 0.0
22/10:30pm 15.7 11.6 -0.1 34 6.7 ENE 11 17 6 9 - - 0.0
22/10:00pm 15.7 11.6 -0.1 34 6.7 ENE 11 15 6 8 - - 0.0
22/09:30pm 15.2 11.2 0.2 36 6.4 ENE 11 19 6 10 - - 0.0
22/09:00pm 14.1 10.1 0.7 40 5.7 E 11 13 6 7 - - 0.0
22/08:30pm 13.7 10.2 1.0 42 5.4 E 9 11 5 6 - - 0.0
22/08:00pm 15.0 11.4 0.4 37 6.2 ENE 9 13 5 7 - - 0.0
22/07:30pm 15.5 11.6 0.9 37 6.3 ENE 11 15 6 8 - - 0.0
22/07:00pm 15.7 12.2 1.4 38 6.3 ENE 9 13 5 7 - - 0.0
22/06:30pm 16.7 13.5 0.8 34 7.0 ENE 7 11 4 6 - - 0.0
22/06:00pm 18.0 13.6 0.6 31 7.7 NNE 13 20 7 11 - - 0.0
22/05:30pm 18.9 14.5 0.5 29 8.2 NNE 13 24 7 13 - - 0.0
22/05:00pm 19.7 14.1 0.2 27 8.6 N 19 26 10 14 - - 0.0
22/04:30pm 20.5 15.8 0.9 27 8.9 N 15 20 8 11 - - 0.0
22/04:00pm 20.3 15.4 1.7 29 8.5 N 17 28 9 15 - - 0.0
22/03:30pm 20.3 15.4 1.7 29 8.5 NNW 17 24 9 13 - - 0.0
22/03:00pm 20.7 15.8 2.0 29 8.7 NNW 17 30 9 16 - - 0.0
22/02:30pm 20.6 15.3 2.0 29 8.6 NNW 19 26 10 14 - - 0.0
22/02:00pm 20.6 15.2 1.5 28 8.8 NNW 19 30 10 16 - - 0.0
22/01:30pm 20.7 15.2 1.6 28 8.8 N 20 32 11 17 - - 0.0
22/01:00pm 21.3 15.9 1.0 26 9.3 N 19 26 10 14 - - 0.0
22/12:30pm 20.6 14.9 0.4 26 9.1 N 20 30 11 16 - - 0.0
22/12:00pm 20.9 15.9 1.2 27 9.0 N 17 28 9 15 - - 0.0
22/11:30am 20.0 14.9 0.5 27 8.7 NNE 17 26 9 14 - - 0.0
22/11:00am 19.1 13.4 0.7 29 8.2 N 20 30 11 16 - - 0.0
22/10:30am 19.3 13.6 0.8 29 8.3 NNE 20 32 11 17 - - 0.0
22/10:00am 18.4 12.6 0.1 29 8.0 NNE 20 30 11 16 - - 0.0
22/09:30am 18.1 11.5 -0.2 29 7.9 NNE 24 35 13 19 - - 0.0
22/09:00am 17.8 11.6 -0.5 29 7.9 NNE 22 32 12 17 - - 0.0
22/08:30am 17.6 12.8 0.3 31 7.5 NNE 15 22 8 12 - - 0.0
22/08:00am 15.9 12.1 2.0 39 6.2 NNE 11 17 6 9 - - 0.0
22/07:30am 14.2 11.2 2.1 44 5.3 NNE 7 11 4 6 - - 0.0
22/07:00am 13.9 9.8 2.2 45 5.1 NE 13 20 7 11 - - 0.0
22/06:30am 13.8 9.7 2.4 46 5.0 NE 13 17 7 9 - - 0.0
22/06:00am 13.9 9.8 2.5 46 5.0 NE 13 17 7 9 - - 0.0
22/05:30am 14.1 10.1 2.7 46 5.1 NE 13 20 7 11 - - 0.0
22/05:00am 14.1 10.1 3.0 47 5.0 NE 13 19 7 10 - - 0.0
22/04:30am 14.2 10.2 3.1 47 5.0 ENE 13 19 7 10 - - 0.0
22/04:00am 14.4 10.5 3.2 47 5.1 ENE 13 19 7 10 - - 0.0
22/03:30am 14.6 10.7 3.4 47 5.1 NE 13 20 7 11 - - 0.0
22/03:00am 14.3 10.5 3.7 49 4.8 ENE 13 20 7 11 - - 0.0
22/02:30am 13.5 10.1 4.1 53 4.3 ENE 11 13 6 7 - - 0.0
22/02:00am 13.7 10.4 4.3 53 4.3 E 11 15 6 8 - - 0.0
22/01:30am 13.9 10.2 4.2 52 4.5 E 13 17 7 9 - - 0.0
22/01:00am 14.2 10.5 4.2 51 4.6 ENE 13 19 7 10 - - 0.0
22/12:30am 14.1 10.3 4.1 51 4.6 ENE 13 17 7 9 - - 0.0
22/12:00am 14.4 10.7 4.4 51 4.6 ENE 13 17 7 9 - - 0.0
 
Date/Time
CST
Tmp

°C
App
Tmp
°C
Dew
Point
°C
Rel
Hum
%
Delta-T

°C
Wind Press
QNH
hPa
Press
MSL
hPa
Rain
since
9 am
mm
Dir
 
Spd
km/h
Gust
km/h
Spd
kts
Gust
kts
21/11:30pm 14.3 10.6 4.3 51 4.6 ENE 13 20 7 11 - - 0.0
21/11:00pm 14.1 10.4 4.4 52 4.5 NE 13 22 7 12 - - 0.0
21/10:30pm 14.1 10.4 4.7 53 4.4 NE 13 19 7 10 - - 0.0
21/10:00pm 14.3 11.0 4.6 52 4.5 ENE 11 17 6 9 - - 0.0
21/09:30pm 13.8 10.9 4.9 55 4.1 ENE 9 13 5 7 - - 0.0
21/09:00pm 13.9 10.3 5.0 55 4.2 ENE 13 20 7 11 - - 0.0
21/08:30pm 13.7 10.6 5.6 58 3.8 ENE 11 13 6 7 - - 0.0
21/08:00pm 13.9 11.2 5.8 58 3.8 ENE 9 15 5 8 - - 0.0
21/07:30pm 13.7 10.7 6.1 60 3.6 ENE 11 15 6 8 - - 0.0
21/07:00pm 13.8 11.4 5.4 57 4.0 E 7 11 4 6 - - 0.0
21/06:30pm 14.1 11.9 5.5 56 4.1 E 6 7 3 4 - - 0.0
21/06:00pm 14.3 12.8 4.9 53 4.4 SSW 2 4 1 2 - - 0.0
21/05:30pm 15.9 14.7 4.6 47 5.3 CALM 0 0 0 0 - - 0.0
21/05:00pm 16.4 14.5 4.8 46 5.5 SSW 4 6 2 3 - - 0.0
21/04:30pm 15.9 13.9 4.3 46 5.4 SW 4 6 2 3 - - 0.0
21/04:00pm 16.6 14.3 4.6 45 5.7 SW 6 9 3 5 - - 0.0
21/03:30pm 16.7 14.3 4.1 43 5.9 SW 6 11 3 6 - - 0.0
21/03:00pm 17.3 14.8 4.6 43 6.0 W 7 9 4 5 - - 0.0
21/02:30pm 17.2 14.9 4.9 44 5.9 W 6 11 3 6 - - 0.0
21/02:00pm 16.8 14.3 4.8 45 5.7 W 7 9 4 5 - - 0.0
21/01:30pm 16.7 14.4 4.7 45 5.7 W 6 9 3 5 - - 0.0
21/01:00pm 15.9 13.5 4.3 46 5.4 W 6 13 3 7 - - 0.0
21/12:30pm 15.6 12.7 4.9 49 5.1 W 9 13 5 7 - - 0.0
21/12:00pm 16.4 14.0 5.1 47 5.4 WNW 7 11 4 6 - - 0.0
21/11:30am 15.4 13.0 5.3 51 4.8 W 7 13 4 7 - - 0.0
21/11:00am 14.8 12.0 5.3 53 4.5 W 9 13 5 7 - - 0.0
21/10:30am 14.9 12.6 4.9 51 4.7 NE 6 7 3 4 - - 0.0
21/10:00am 14.2 12.2 4.5 52 4.5 NE 4 6 2 3 - - 0.0
21/09:30am 14.2 12.2 4.5 52 4.5 NE 4 6 2 3 - - 0.0
21/09:00am 13.4 11.3 4.0 53 4.3 NE 4 6 2 3 - - 0.2
21/08:30am 11.9 9.4 3.7 57 3.7 ENE 6 9 3 5 - - 0.2
21/08:00am 10.5 6.9 3.1 60 3.2 ENE 11 17 6 9 - - 0.2
21/07:30am 9.3 5.3 2.6 63 2.8 E 13 19 7 10 - - 0.2
21/07:00am 8.3 5.0 2.5 67 2.4 ENE 9 17 5 9 - - 0.2
21/06:30am 8.5 4.8 2.3 65 2.6 ENE 11 15 6 8 - - 0.2
21/06:00am 8.7 4.2 2.3 64 2.7 E 15 19 8 10 - - 0.2
21/05:30am 8.6 4.5 2.2 64 2.7 E 13 19 7 10 - - 0.2
21/05:00am 8.8 4.3 2.4 64 2.7 ENE 15 20 8 11 - - 0.2
21/04:30am 8.8 4.3 2.4 64 2.7 ENE 15 22 8 12 - - 0.2
21/04:00am 8.8 4.3 2.2 63 2.8 E 15 22 8 12 - - 0.2
21/03:30am 8.8 3.6 2.2 63 2.8 E 19 26 10 14 - - 0.2
21/03:00am 9.0 4.1 2.1 62 2.9 E 17 28 9 15 - - 0.2
21/02:30am 9.0 4.6 2.6 64 2.7 E 15 22 8 12 - - 0.2
21/02:00am 8.9 4.1 2.5 64 2.7 E 17 24 9 13 - - 0.2
21/01:30am 8.7 4.3 2.5 65 2.6 E 15 22 8 12 - - 0.2
21/01:00am 8.7 3.5 2.7 66 2.5 E 19 30 10 16 - - 0.2
21/12:30am 8.8 4.0 2.8 66 2.6 E 17 26 9 14 - - 0.2
21/12:00am 8.9 4.2 2.9 66 2.6 E 17 26 9 14 - - 0.2
 
Date/Time
CST
Tmp

°C
App
Tmp
°C
Dew
Point
°C
Rel
Hum
%
Delta-T

°C
Wind Press
QNH
hPa
Press
MSL
hPa
Rain
since
9 am
mm
Dir
 
Spd
km/h
Gust
km/h
Spd
kts
Gust
kts
20/11:30pm 8.9 3.8 2.9 66 2.6 E 19 26 10 14 - - 0.2
20/11:00pm 8.8 3.7 3.0 67 2.5 E 19 26 10 14 - - 0.2
20/10:30pm 8.8 4.1 3.0 67 2.5 E 17 26 9 14 - - 0.2
20/10:00pm 8.7 3.7 3.5 70 2.2 ESE 19 26 10 14 - - 0.2
20/09:30pm 8.7 3.7 3.5 70 2.2 ESE 19 26 10 14 - - 0.2
20/09:00pm 9.0 4.3 3.4 68 2.4 ESE 17 24 9 13 - - 0.2
20/08:30pm 9.0 3.7 3.2 67 2.5 ESE 20 24 11 13 - - 0.2
20/08:00pm 9.1 3.8 3.1 66 2.6 ESE 20 26 11 14 - - 0.2
20/07:30pm 9.1 4.8 3.1 66 2.6 ESE 15 22 8 12 - - 0.2
20/07:00pm 9.6 4.9 3.1 64 2.8 ESE 17 24 9 13 - - 0.2
20/06:30pm 10.1 5.4 2.9 61 3.1 ESE 17 20 9 11 - - 0.2
20/06:00pm 10.5 5.7 2.8 59 3.3 ESE 17 22 9 12 - - 0.2
20/05:30pm 11.5 7.6 3.5 58 3.5 ESE 13 19 7 10 - - 0.2
20/05:00pm 12.1 8.3 3.9 57 3.7 ESE 13 19 7 10 - - 0.2

Latest Capital City Observations: Canberra | Sydney | Melbourne | Brisbane | Adelaide | Perth | Hobart | Darwin

Other Formats:

Comma delimited format used in spreadsheet applications
http://www.bom.gov.au/fwo/IDS60901/IDS60901.94808.axf

JavaScript Object Notation format (JSON) in row-major order
http://www.bom.gov.au/fwo/IDS60901/IDS60901.94808.json